createdAt,value
2019-04-01T00:00:09.376Z,5.0668
2019-04-01T00:00:21.558Z,5.0266
2019-04-01T00:00:33.738Z,5.0165
2019-04-01T00:00:44.916Z,4.9963
2019-04-01T00:00:57.106Z,5.0165
2019-04-01T00:01:09.278Z,4.9661
2019-04-01T00:01:21.450Z,4.9359
2019-04-01T00:01:33.626Z,4.9158
2019-04-01T00:01:45.938Z,4.8755
2019-04-01T00:01:58.261Z,4.8553
2019-04-01T00:02:10.487Z,4.8352
2019-04-01T00:02:22.686Z,4.8050
2019-04-01T00:02:33.884Z,4.7345
2019-04-01T00:02:46.075Z,4.7345
2019-04-01T00:02:58.298Z,4.7244
2019-04-01T00:03:09.500Z,4.6942
2019-04-01T00:03:21.684Z,4.7345
2019-04-01T00:03:33.874Z,4.7244
2019-04-01T00:03:46.048Z,4.7748
2019-04-01T00:03:58.234Z,4.8352
2019-04-01T00:04:10.432Z,4.8453
2019-04-01T00:04:22.624Z,4.8352
2019-04-01T00:04:34.810Z,4.8553
2019-04-01T00:04:47.013Z,4.9057
2019-04-01T00:04:59.207Z,4.9561
2019-04-01T00:05:11.377Z,4.9359
2019-04-01T00:05:23.558Z,4.9057
2019-04-01T00:05:35.747Z,4.8453
2019-04-01T00:05:47.936Z,4.8151
2019-04-01T00:06:00.118Z,4.7546
2019-04-01T00:06:12.300Z,4.6539
2019-04-01T00:06:24.496Z,4.6036
2019-04-01T00:06:35.692Z,4.5834
2019-04-01T00:06:47.880Z,4.5432
2019-04-01T00:07:00.079Z,4.4827
2019-04-01T00:07:12.270Z,4.4827
2019-04-01T00:07:24.458Z,4.4525
2019-04-01T00:07:36.636Z,4.4424
2019-04-01T00:07:48.816Z,4.4122
2019-04-01T00:08:00.996Z,4.4022
2019-04-01T00:08:13.174Z,4.3719
2019-04-01T00:08:25.350Z,4.3417
2019-04-01T00:08:37.554Z,4.3719
2019-04-01T00:08:49.728Z,4.4525
2019-04-01T00:09:01.924Z,4.5230
2019-04-01T00:09:13.125Z,4.5532
2019-04-01T00:09:25.323Z,4.5532
2019-04-01T00:09:37.521Z,4.6036
2019-04-01T00:09:49.700Z,4.6741
2019-04-01T00:10:01.905Z,4.7546
2019-04-01T00:10:14.081Z,4.8050
2019-04-01T00:10:26.286Z,4.8352
2019-04-01T00:10:38.501Z,4.8453
2019-04-01T00:10:50.681Z,4.8856
2019-04-01T00:11:02.875Z,4.9158
2019-04-01T00:11:15.064Z,4.9359
2019-04-01T00:11:27.257Z,4.9359
2019-04-01T00:11:39.436Z,4.9359
2019-04-01T00:11:51.614Z,4.9359
2019-04-01T00:12:03.817Z,4.9359
2019-04-01T00:12:16.018Z,4.9359
2019-04-01T00:12:28.201Z,4.9863
2019-04-01T00:12:40.376Z,5.0266
2019-04-01T00:12:52.556Z,5.0165
2019-04-01T00:13:04.754Z,5.0266
2019-04-01T00:13:16.928Z,5.0266
2019-04-01T00:13:29.124Z,5.0165
2019-04-01T00:13:41.426Z,5.0366
2019-04-01T00:13:52.606Z,5.0568
2019-04-01T00:14:04.917Z,5.0668
2019-04-01T00:14:16.116Z,5.0668
2019-04-01T00:14:28.298Z,5.1172
2019-04-01T00:14:40.478Z,5.1273
2019-04-01T00:14:52.668Z,5.1273
2019-04-01T00:15:04.868Z,5.1474
2019-04-01T00:15:17.096Z,5.1273
2019-04-01T00:15:29.275Z,5.1172
2019-04-01T00:15:41.466Z,5.0870
2019-04-01T00:15:53.652Z,5.0568
2019-04-01T00:16:05.828Z,5.0165
2019-04-01T00:16:18.006Z,4.9863
2019-04-01T00:16:30.206Z,4.9561
2019-04-01T00:16:42.392Z,4.9057
2019-04-01T00:16:54.582Z,4.8856
2019-04-01T00:17:06.776Z,4.8453
2019-04-01T00:17:18.965Z,4.8050
2019-04-01T00:17:31.147Z,4.8151
2019-04-01T00:17:43.328Z,4.8453
2019-04-01T00:17:55.515Z,4.9359
2019-04-01T00:18:06.709Z,4.9963
2019-04-01T00:18:18.880Z,5.0366
2019-04-01T00:18:31.068Z,5.0366
2019-04-01T00:18:43.266Z,5.0366
2019-04-01T00:19:03.121Z,5.0165
2019-04-01T00:19:12.700Z,4.9661
2019-04-01T00:19:24.881Z,4.9561
2019-04-01T00:19:37.057Z,4.9359
2019-04-01T00:19:49.239Z,4.9561
2019-04-01T00:20:01.443Z,4.9561
2019-04-01T00:20:13.629Z,4.9359
2019-04-01T00:20:25.801Z,4.9057
2019-04-01T00:20:37.975Z,4.8453
2019-04-01T00:20:50.161Z,4.8453
2019-04-01T00:21:02.343Z,4.8050
2019-04-01T00:21:14.523Z,4.9661
2019-04-01T00:21:25.721Z,5.0568
2019-04-01T00:21:38.019Z,5.0870
2019-04-01T00:21:50.259Z,5.0870
2019-04-01T00:22:02.454Z,5.0970
2019-04-01T00:22:14.725Z,5.0970
2019-04-01T00:22:26.911Z,5.1172
2019-04-01T00:22:38.220Z,5.0970
2019-04-01T00:22:50.631Z,5.0970
2019-04-01T00:23:03.122Z,5.0970
2019-04-01T00:23:15.443Z,5.1172
2019-04-01T00:23:27.631Z,5.0970
2019-04-01T00:23:39.814Z,5.0668
2019-04-01T00:23:52.006Z,5.0668
2019-04-01T00:24:04.211Z,5.0568
2019-04-01T00:24:16.401Z,5.0568
2019-04-01T00:24:28.575Z,5.0366
2019-04-01T00:24:40.759Z,5.0266
2019-04-01T00:24:52.951Z,4.9963
2019-04-01T00:25:05.132Z,4.9963
2019-04-01T00:25:17.341Z,5.0165
2019-04-01T00:25:29.699Z,5.0165
2019-04-01T00:25:41.873Z,4.9963
2019-04-01T00:25:54.052Z,4.9561
2019-04-01T00:26:06.234Z,4.9359
2019-04-01T00:26:18.415Z,4.8856
2019-04-01T00:26:30.607Z,4.8755
2019-04-01T00:26:42.915Z,4.8553
2019-04-01T00:26:54.111Z,4.8755
2019-04-01T00:27:06.299Z,4.8453
2019-04-01T00:27:18.702Z,4.8151
2019-04-01T00:27:30.913Z,4.8050
2019-04-01T00:27:43.091Z,4.7345
2019-04-01T00:27:55.271Z,4.7043
2019-04-01T00:28:07.461Z,4.6539
2019-04-01T00:28:19.652Z,4.5532
2019-04-01T00:28:31.861Z,4.4424
2019-04-01T00:28:44.039Z,4.3216
2019-04-01T00:28:56.210Z,4.1605
2019-04-01T00:29:08.384Z,4.0598
2019-04-01T00:29:20.562Z,3.9590
2019-04-01T00:29:32.735Z,3.8583
2019-04-01T00:29:44.925Z,3.7878
2019-04-01T00:29:57.120Z,3.7476
2019-04-01T00:30:09.301Z,3.6871
2019-04-01T00:30:21.497Z,3.6469
2019-04-01T00:30:33.671Z,3.5965
2019-04-01T00:30:45.844Z,3.5461
2019-04-01T00:30:58.019Z,3.5159
2019-04-01T00:31:10.212Z,3.5159
2019-04-01T00:31:22.381Z,3.5663
2019-04-01T00:31:34.569Z,3.5965
2019-04-01T00:31:46.751Z,3.6771
2019-04-01T00:31:58.939Z,3.8785
2019-04-01T00:32:11.130Z,3.9691
2019-04-01T00:32:23.311Z,4.0497
2019-04-01T00:32:35.501Z,4.1202
2019-04-01T00:32:47.689Z,4.1504
2019-04-01T00:32:59.883Z,4.1403
2019-04-01T00:33:12.094Z,4.1504
2019-04-01T00:33:24.288Z,4.1403
2019-04-01T00:33:36.479Z,4.1605
2019-04-01T00:33:48.669Z,4.2209
2019-04-01T00:34:00.872Z,4.2712
2019-04-01T00:34:13.068Z,4.3015
2019-04-01T00:34:25.259Z,4.3216
2019-04-01T00:34:37.456Z,4.3317
2019-04-01T00:34:49.645Z,4.3417
2019-04-01T00:35:01.822Z,4.3015
2019-04-01T00:35:14.009Z,4.2914
2019-04-01T00:35:26.192Z,4.2612
2019-04-01T00:35:38.385Z,4.2712
2019-04-01T00:35:50.569Z,4.2612
2019-04-01T00:36:02.758Z,4.2914
2019-04-01T00:36:14.949Z,4.3317
2019-04-01T00:36:27.130Z,4.4022
2019-04-01T00:36:39.305Z,4.4122
2019-04-01T00:36:51.491Z,4.4122
2019-04-01T00:37:03.679Z,4.4022
2019-04-01T00:37:15.857Z,4.4022
2019-04-01T00:37:28.049Z,4.3619
2019-04-01T00:37:40.249Z,4.3417
2019-04-01T00:37:52.432Z,4.3317
2019-04-01T00:38:04.614Z,4.2914
2019-04-01T00:38:16.809Z,4.2712
2019-04-01T00:38:28.984Z,4.2410
2019-04-01T00:38:41.176Z,4.2209
2019-04-01T00:38:53.366Z,4.1806
2019-04-01T00:39:05.584Z,4.1605
2019-04-01T00:39:17.779Z,4.1403
2019-04-01T00:39:29.993Z,4.1101
2019-04-01T00:39:42.190Z,4.1101
2019-04-01T00:39:54.361Z,4.1101
2019-04-01T00:40:06.550Z,4.0799
2019-04-01T00:40:18.783Z,4.0396
2019-04-01T00:40:29.983Z,3.9590
2019-04-01T00:40:42.179Z,3.9590
2019-04-01T00:40:54.362Z,3.9590
2019-04-01T00:41:05.562Z,3.9792
2019-04-01T00:41:17.750Z,4.1202
2019-04-01T00:41:29.939Z,4.2612
2019-04-01T00:41:42.126Z,4.5029
2019-04-01T00:41:54.303Z,4.6539
2019-04-01T00:42:06.489Z,4.7345
2019-04-01T00:42:18.684Z,4.7546
2019-04-01T00:42:30.883Z,4.8453
2019-04-01T00:42:43.059Z,4.9963
2019-04-01T00:42:55.242Z,5.1172
2019-04-01T00:43:07.413Z,5.3287
2019-04-01T00:43:18.592Z,5.4294
2019-04-01T00:43:30.785Z,5.4898
2019-04-01T00:43:43.000Z,5.5301
2019-04-01T00:43:55.191Z,5.5301
2019-04-01T00:44:07.451Z,5.5603
2019-04-01T00:44:19.632Z,5.5704
2019-04-01T00:44:31.803Z,5.6107
2019-04-01T00:44:43.978Z,5.6006
2019-04-01T00:44:56.152Z,5.5804
2019-04-01T00:45:08.361Z,5.5704
2019-04-01T00:45:20.571Z,5.5402
2019-04-01T00:45:32.804Z,5.5301
2019-04-01T00:45:44.985Z,5.4898
2019-04-01T00:45:56.160Z,5.4495
2019-04-01T00:46:08.350Z,5.3992
2019-04-01T00:46:20.534Z,5.3589
2019-04-01T00:46:32.711Z,5.3085
2019-04-01T00:46:44.892Z,5.2481
2019-04-01T00:46:57.081Z,5.2179
2019-04-01T00:47:09.280Z,5.1776
2019-04-01T00:47:21.471Z,5.1776
2019-04-01T00:47:33.671Z,5.1675
2019-04-01T00:47:45.845Z,5.1978
2019-04-01T00:47:58.040Z,5.2179
2019-04-01T00:48:10.233Z,5.2380
2019-04-01T00:48:22.411Z,5.2179
2019-04-01T00:48:34.607Z,5.2179
2019-04-01T00:48:46.801Z,5.1675
2019-04-01T00:48:58.994Z,5.1474
2019-04-01T00:49:11.196Z,5.1273
2019-04-01T00:49:23.376Z,5.1273
2019-04-01T00:49:35.567Z,5.1273
2019-04-01T00:49:47.754Z,5.0970
2019-04-01T00:49:59.933Z,5.0668
2019-04-01T00:50:11.157Z,5.0870
2019-04-01T00:50:23.434Z,5.0668
2019-04-01T00:50:35.631Z,5.0668
2019-04-01T00:50:47.801Z,5.0668
2019-04-01T00:50:59.989Z,5.0870
2019-04-01T00:51:12.207Z,5.0668
2019-04-01T00:51:23.420Z,5.0568
2019-04-01T00:51:35.620Z,5.0668
2019-04-01T00:51:47.815Z,5.0568
2019-04-01T00:51:59.997Z,5.0266
2019-04-01T00:52:12.193Z,4.9963
2019-04-01T00:52:24.362Z,4.9661
2019-04-01T00:52:36.535Z,4.9561
2019-04-01T00:52:48.727Z,4.9661
2019-04-01T00:53:00.904Z,5.0165
2019-04-01T00:53:13.091Z,5.0366
2019-04-01T00:53:25.279Z,5.0668
2019-04-01T00:53:37.461Z,5.1474
2019-04-01T00:53:49.652Z,5.2078
2019-04-01T00:54:01.833Z,5.2380
2019-04-01T00:54:14.022Z,5.3085
2019-04-01T00:54:26.209Z,5.3287
2019-04-01T00:54:38.446Z,5.3287
2019-04-01T00:54:50.639Z,5.3287
2019-04-01T00:55:02.832Z,5.3488
2019-04-01T00:55:15.026Z,5.3488
2019-04-01T00:55:27.223Z,5.3287
2019-04-01T00:55:39.402Z,5.2985
2019-04-01T00:55:51.592Z,5.2481
2019-04-01T00:56:03.792Z,5.2380
2019-04-01T00:56:15.989Z,5.2078
2019-04-01T00:56:28.171Z,5.1474
2019-04-01T00:56:40.355Z,5.0870
2019-04-01T00:56:52.542Z,4.9963
2019-04-01T00:57:04.731Z,4.9561
2019-04-01T00:57:16.911Z,4.9158
2019-04-01T00:57:28.093Z,4.9057
2019-04-01T00:57:40.285Z,4.8453
2019-04-01T00:57:52.479Z,4.8050
2019-04-01T00:58:04.771Z,4.7345
2019-04-01T00:58:16.969Z,4.6640
2019-04-01T00:58:30.594Z,4.5532
2019-04-01T00:58:42.975Z,4.4525
2019-04-01T00:58:55.155Z,4.3417
2019-04-01T00:59:07.369Z,4.3417
2019-04-01T00:59:19.551Z,4.3719
2019-04-01T00:59:31.875Z,4.4022
2019-04-01T00:59:44.051Z,4.3619
2019-04-01T00:59:56.229Z,4.3216
2019-04-01T01:00:08.417Z,4.2914
2019-04-01T01:00:20.620Z,4.2410
2019-04-01T01:00:31.812Z,4.2007
2019-04-01T01:00:44.001Z,4.1605
2019-04-01T01:00:56.179Z,4.1202
2019-04-01T01:01:08.354Z,4.0900
2019-04-01T01:01:20.617Z,4.0598
2019-04-01T01:01:32.797Z,4.0497
2019-04-01T01:01:44.979Z,4.0900
2019-04-01T01:01:57.165Z,4.0900
2019-04-01T01:02:09.350Z,4.0799
2019-04-01T01:02:21.530Z,4.0598
2019-04-01T01:02:33.709Z,4.0799
2019-04-01T01:02:45.893Z,4.1504
2019-04-01T01:02:58.071Z,4.2612
2019-04-01T01:03:10.251Z,4.3417
2019-04-01T01:03:22.457Z,4.4827
2019-04-01T01:03:34.640Z,4.5432
2019-04-01T01:03:46.813Z,4.6237
2019-04-01T01:03:58.998Z,4.6338
2019-04-01T01:04:11.191Z,4.6942
2019-04-01T01:04:23.365Z,4.7244
2019-04-01T01:04:35.559Z,4.7748
2019-04-01T01:04:47.736Z,4.7748
2019-04-01T01:04:59.919Z,4.7748
2019-04-01T01:05:12.099Z,4.8352
2019-04-01T01:05:24.294Z,4.8553
2019-04-01T01:05:36.489Z,4.8553
2019-04-01T01:05:48.681Z,4.9057
2019-04-01T01:06:00.863Z,4.9158
2019-04-01T01:06:13.035Z,4.9158
2019-04-01T01:06:25.221Z,4.9158
2019-04-01T01:06:37.409Z,4.8755
2019-04-01T01:06:49.586Z,4.8151
2019-04-01T01:07:01.761Z,4.7345
2019-04-01T01:07:13.936Z,4.6640
2019-04-01T01:07:26.119Z,4.6036
2019-04-01T01:07:38.305Z,4.5532
2019-04-01T01:07:50.476Z,4.5230
2019-04-01T01:08:02.670Z,4.4727
2019-04-01T01:08:14.861Z,4.4424
2019-04-01T01:08:27.040Z,4.3719
2019-04-01T01:08:39.219Z,4.3317
2019-04-01T01:08:51.410Z,4.2914
2019-04-01T01:09:03.602Z,4.2612
2019-04-01T01:09:15.771Z,4.2007
2019-04-01T01:09:26.953Z,4.1605
2019-04-01T01:09:39.139Z,4.1101
2019-04-01T01:09:51.339Z,4.0598
2019-04-01T01:10:03.524Z,4.0195
2019-04-01T01:10:15.712Z,3.9691
2019-04-01T01:10:27.901Z,3.9288
2019-04-01T01:10:40.071Z,3.8986
2019-04-01T01:10:52.256Z,3.8684
2019-04-01T01:11:04.440Z,3.8583
2019-04-01T01:11:16.694Z,3.8281
2019-04-01T01:11:28.901Z,3.7274
2019-04-01T01:11:41.089Z,3.7274
2019-04-01T01:11:53.276Z,3.6972
2019-04-01T01:12:05.460Z,3.6871
2019-04-01T01:12:17.632Z,3.6569
2019-04-01T01:12:29.823Z,3.6166
2019-04-01T01:12:42.032Z,3.5965
2019-04-01T01:12:54.225Z,3.5764
2019-04-01T01:13:06.393Z,3.5461
2019-04-01T01:13:18.590Z,3.5461
2019-04-01T01:13:30.763Z,3.5159
2019-04-01T01:13:43.020Z,3.5059
2019-04-01T01:13:55.205Z,3.5965
2019-04-01T01:14:07.402Z,3.7979
2019-04-01T01:14:19.581Z,3.9993
2019-04-01T01:14:31.761Z,4.1101
2019-04-01T01:14:43.951Z,4.1605
2019-04-01T01:14:56.123Z,4.4122
2019-04-01T01:15:08.318Z,4.5129
2019-04-01T01:15:20.494Z,4.5532
2019-04-01T01:15:32.836Z,4.5935
2019-04-01T01:15:45.034Z,4.6338
2019-04-01T01:15:57.213Z,4.7244
2019-04-01T01:16:09.396Z,4.8151
2019-04-01T01:16:21.624Z,4.8553
2019-04-01T01:16:33.804Z,4.8553
2019-04-01T01:16:46.005Z,4.8755
2019-04-01T01:16:58.186Z,4.8553
2019-04-01T01:17:09.376Z,4.8050
2019-04-01T01:17:21.598Z,4.7546
2019-04-01T01:17:33.783Z,4.7244
2019-04-01T01:17:46.102Z,4.6741
2019-04-01T01:17:57.283Z,4.6036
2019-04-01T01:18:08.452Z,4.5532
2019-04-01T01:18:20.633Z,4.4827
2019-04-01T01:18:32.805Z,4.3719
2019-04-01T01:18:44.999Z,4.2914
2019-04-01T01:18:57.171Z,4.2209
2019-04-01T01:19:09.361Z,4.1403
2019-04-01T01:19:21.539Z,4.0799
2019-04-01T01:19:33.724Z,4.0396
2019-04-01T01:19:45.910Z,3.9590
2019-04-01T01:19:58.211Z,3.8684
2019-04-01T01:20:10.394Z,3.7878
2019-04-01T01:20:22.599Z,3.7476
2019-04-01T01:20:34.769Z,3.6771
2019-04-01T01:20:46.962Z,3.6166
2019-04-01T01:20:59.145Z,3.5663
2019-04-01T01:21:11.330Z,3.5361
2019-04-01T01:21:23.512Z,3.4756
2019-04-01T01:21:35.698Z,3.4152
2019-04-01T01:21:47.886Z,3.2944
2019-04-01T01:22:00.095Z,3.3246
2019-04-01T01:22:12.317Z,3.4152
2019-04-01T01:22:24.509Z,3.5159
2019-04-01T01:22:36.683Z,3.5361
2019-04-01T01:22:48.874Z,3.5663
2019-04-01T01:23:01.062Z,3.5461
2019-04-01T01:23:13.256Z,3.5764
2019-04-01T01:23:25.449Z,3.5965
2019-04-01T01:23:37.635Z,3.6166
2019-04-01T01:23:49.825Z,3.6166
2019-04-01T01:24:01.999Z,3.6469
2019-04-01T01:24:14.172Z,3.6166
2019-04-01T01:24:25.363Z,3.5461
2019-04-01T01:24:37.559Z,3.5059
2019-04-01T01:24:49.749Z,3.4756
2019-04-01T01:25:01.935Z,3.4253
2019-04-01T01:25:13.150Z,3.3951
2019-04-01T01:25:24.342Z,3.3850
2019-04-01T01:25:36.528Z,3.3649
2019-04-01T01:25:48.711Z,3.3246
2019-04-01T01:26:00.899Z,3.2440
2019-04-01T01:26:13.082Z,3.2037
2019-04-01T01:26:25.265Z,3.2037
2019-04-01T01:26:37.455Z,3.2037
2019-04-01T01:26:49.659Z,3.1735
2019-04-01T01:27:01.859Z,3.1433
2019-04-01T01:27:14.062Z,3.1030
2019-04-01T01:27:26.232Z,3.0527
2019-04-01T01:27:38.413Z,3.0325
2019-04-01T01:27:50.601Z,3.0325
2019-04-01T01:28:02.781Z,3.1030
2019-04-01T01:28:14.952Z,3.3850
2019-04-01T01:28:27.140Z,3.5059
2019-04-01T01:28:39.328Z,3.6972
2019-04-01T01:28:51.513Z,3.8583
2019-04-01T01:29:03.703Z,3.9389
2019-04-01T01:29:15.892Z,4.0900
2019-04-01T01:29:28.074Z,4.2209
2019-04-01T01:29:40.252Z,4.3317
2019-04-01T01:29:52.436Z,4.4424
2019-04-01T01:30:04.613Z,4.5029
2019-04-01T01:30:16.836Z,4.5129
2019-04-01T01:30:29.023Z,4.4827
2019-04-01T01:30:41.202Z,4.4727
2019-04-01T01:30:53.382Z,4.4223
2019-04-01T01:31:05.560Z,4.4223
2019-04-01T01:31:17.741Z,4.4022
2019-04-01T01:31:29.913Z,4.4122
2019-04-01T01:31:42.119Z,4.3619
2019-04-01T01:31:54.446Z,4.3317
2019-04-01T01:32:06.639Z,4.3015
2019-04-01T01:32:18.839Z,4.2612
2019-04-01T01:32:31.031Z,4.2310
2019-04-01T01:32:42.234Z,4.1504
2019-04-01T01:32:54.412Z,4.0900
2019-04-01T01:33:06.600Z,4.0598
2019-04-01T01:33:18.779Z,3.9792
2019-04-01T01:33:30.965Z,3.9087
2019-04-01T01:33:43.157Z,3.8583
2019-04-01T01:33:55.349Z,3.7878
2019-04-01T01:34:07.519Z,3.7576
2019-04-01T01:34:18.699Z,3.7778
2019-04-01T01:34:30.877Z,3.7274
2019-04-01T01:34:43.061Z,3.7476
2019-04-01T01:34:55.239Z,3.6771
2019-04-01T01:35:07.436Z,3.6569
2019-04-01T01:35:19.612Z,3.6066
2019-04-01T01:35:31.791Z,3.5361
2019-04-01T01:35:43.981Z,3.4958
2019-04-01T01:35:55.199Z,3.4253
2019-04-01T01:36:07.385Z,3.4152
2019-04-01T01:36:19.684Z,3.3347
2019-04-01T01:36:30.861Z,3.2642
2019-04-01T01:36:43.051Z,3.2037
2019-04-01T01:36:55.241Z,3.1534
2019-04-01T01:37:07.422Z,3.0829
2019-04-01T01:37:19.602Z,3.0527
2019-04-01T01:37:31.795Z,3.0527
2019-04-01T01:37:43.982Z,3.0225
2019-04-01T01:37:56.169Z,2.9721
2019-04-01T01:38:08.370Z,2.9520
2019-04-01T01:38:20.560Z,2.9218
2019-04-01T01:38:32.746Z,3.1030
2019-04-01T01:38:44.941Z,3.3145
2019-04-01T01:38:57.139Z,3.5059
2019-04-01T01:39:09.335Z,3.5764
2019-04-01T01:39:21.512Z,3.5965
2019-04-01T01:39:33.683Z,3.6066
2019-04-01T01:39:44.875Z,3.6166
2019-04-01T01:39:57.060Z,3.6166
2019-04-01T01:40:09.249Z,3.6166
2019-04-01T01:40:21.436Z,3.6469
2019-04-01T01:40:33.630Z,3.6166
2019-04-01T01:40:45.861Z,3.6166
2019-04-01T01:40:58.196Z,3.6066
2019-04-01T01:41:10.381Z,3.5965
2019-04-01T01:41:22.581Z,3.6469
2019-04-01T01:41:34.762Z,3.6569
2019-04-01T01:41:46.941Z,3.6569
2019-04-01T01:41:59.121Z,3.6771
2019-04-01T01:42:11.319Z,3.6871
2019-04-01T01:42:23.499Z,3.6871
2019-04-01T01:42:35.687Z,3.6771
2019-04-01T01:42:47.866Z,3.6569
2019-04-01T01:43:00.063Z,3.5663
2019-04-01T01:43:12.281Z,3.5059
2019-04-01T01:43:24.479Z,3.4756
2019-04-01T01:43:36.669Z,3.4656
2019-04-01T01:43:48.859Z,3.3951
2019-04-01T01:44:01.060Z,3.3548
2019-04-01T01:44:13.255Z,3.2944
2019-04-01T01:44:25.555Z,3.2440
2019-04-01T01:44:37.740Z,3.2138
2019-04-01T01:44:49.952Z,3.1735
2019-04-01T01:45:01.149Z,3.1131
2019-04-01T01:45:13.334Z,3.0325
2019-04-01T01:45:25.509Z,2.9922
2019-04-01T01:45:37.698Z,2.9721
2019-04-01T01:45:50.020Z,2.9520
2019-04-01T01:46:01.209Z,2.9016
2019-04-01T01:46:13.409Z,2.8915
2019-04-01T01:46:25.715Z,2.8513
2019-04-01T01:46:36.910Z,2.8110
2019-04-01T01:46:49.099Z,2.8210
2019-04-01T01:47:01.281Z,2.8714
2019-04-01T01:47:13.464Z,2.8513
2019-04-01T01:47:24.643Z,2.8412
2019-04-01T01:47:36.842Z,2.7808
2019-04-01T01:47:49.021Z,2.7405
2019-04-01T01:48:01.202Z,2.6599
2019-04-01T01:48:13.382Z,2.6398
2019-04-01T01:48:25.577Z,2.5995
2019-04-01T01:48:37.769Z,2.5693
2019-04-01T01:48:49.954Z,2.5391
2019-04-01T01:49:02.131Z,2.5189
2019-04-01T01:49:14.321Z,2.4887
2019-04-01T01:49:26.513Z,2.4786
2019-04-01T01:49:38.712Z,2.4484
2019-04-01T01:49:50.900Z,2.4081
2019-04-01T01:50:03.085Z,2.4081
2019-04-01T01:50:15.265Z,2.3477
2019-04-01T01:50:27.457Z,2.2772
2019-04-01T01:50:38.645Z,2.2369
2019-04-01T01:50:50.830Z,2.1765
2019-04-01T01:51:03.015Z,2.0959
2019-04-01T01:51:15.205Z,2.0456
2019-04-01T01:51:27.385Z,2.0255
2019-04-01T01:51:39.557Z,1.9550
2019-04-01T01:51:51.752Z,1.8845
2019-04-01T01:52:03.957Z,1.8643
2019-04-01T01:52:16.262Z,1.8140
2019-04-01T01:52:28.452Z,1.8140
2019-04-01T01:52:40.635Z,1.7938
2019-04-01T01:52:52.825Z,1.8039
2019-04-01T01:53:05.010Z,1.7334
2019-04-01T01:53:17.199Z,1.7233
2019-04-01T01:53:29.402Z,1.7032
2019-04-01T01:53:41.899Z,1.6830
2019-04-01T01:53:54.133Z,1.6830
2019-04-01T01:54:06.309Z,1.6830
2019-04-01T01:54:18.502Z,1.6528
2019-04-01T01:54:30.710Z,1.6226
2019-04-01T01:54:42.891Z,1.6226
2019-04-01T01:54:55.079Z,1.5924
2019-04-01T01:55:07.251Z,1.5924
2019-04-01T01:55:19.439Z,1.6226
2019-04-01T01:55:31.632Z,1.6025
2019-04-01T01:55:43.821Z,1.6025
2019-04-01T01:55:56.019Z,1.6226
2019-04-01T01:56:07.202Z,1.6528
2019-04-01T01:56:19.383Z,1.6629
2019-04-01T01:56:30.569Z,1.6528
2019-04-01T01:56:42.782Z,1.6629
2019-04-01T01:56:54.985Z,1.6528
2019-04-01T01:57:07.171Z,1.6528
2019-04-01T01:57:19.383Z,1.6327
2019-04-01T01:57:31.569Z,1.6528
2019-04-01T01:57:43.931Z,1.6629
2019-04-01T01:57:56.122Z,1.6830
2019-04-01T01:58:07.303Z,1.6931
2019-04-01T01:58:19.485Z,1.7334
2019-04-01T01:58:31.673Z,1.8643
2019-04-01T01:58:43.853Z,1.9348
2019-04-01T01:58:56.037Z,1.9751
2019-04-01T01:59:08.225Z,1.9751
2019-04-01T01:59:19.405Z,1.9852
2019-04-01T01:59:31.601Z,1.9751
2019-04-01T01:59:43.810Z,1.9952
2019-04-01T01:59:55.991Z,2.0154
2019-04-01T02:00:08.175Z,2.0456
2019-04-01T02:00:20.380Z,2.0456
2019-04-01T02:00:32.571Z,2.0456
2019-04-01T02:00:44.981Z,2.0557
2019-04-01T02:00:57.170Z,2.0557
2019-04-01T02:01:09.441Z,2.0657
2019-04-01T02:01:21.632Z,2.0557
2019-04-01T02:01:33.828Z,2.0255
2019-04-01T02:01:46.025Z,2.0456
2019-04-01T02:01:58.203Z,1.9952
2019-04-01T02:02:10.396Z,1.9550
2019-04-01T02:02:22.589Z,1.9046
2019-04-01T02:02:34.781Z,1.8643
2019-04-01T02:02:46.961Z,1.8643
2019-04-01T02:02:59.158Z,1.8341
2019-04-01T02:03:11.335Z,1.8341
2019-04-01T02:03:23.552Z,1.8140
2019-04-01T02:03:35.739Z,1.8039
2019-04-01T02:03:47.912Z,1.7636
2019-04-01T02:04:00.096Z,1.7334
2019-04-01T02:04:12.305Z,1.7636
2019-04-01T02:04:23.511Z,1.7334
2019-04-01T02:04:35.752Z,1.7334
2019-04-01T02:04:47.924Z,1.7032
2019-04-01T02:04:59.104Z,1.7032
2019-04-01T02:05:11.302Z,1.6830
2019-04-01T02:05:22.485Z,1.6629
2019-04-01T02:05:34.665Z,1.6629
2019-04-01T02:05:46.875Z,1.6629
2019-04-01T02:05:59.069Z,1.6528
2019-04-01T02:06:11.268Z,1.6226
2019-04-01T02:06:23.470Z,1.6025
2019-04-01T02:06:35.695Z,1.6327
2019-04-01T02:06:47.875Z,1.6629
2019-04-01T02:07:00.078Z,1.6931
2019-04-01T02:07:12.259Z,1.7334
2019-04-01T02:07:24.456Z,1.7636
2019-04-01T02:07:36.640Z,1.7938
2019-04-01T02:07:47.842Z,1.8341
2019-04-01T02:08:00.019Z,1.8744
2019-04-01T02:08:12.222Z,1.8845
2019-04-01T02:08:24.402Z,1.9046
2019-04-01T02:08:36.579Z,1.9348
2019-04-01T02:08:48.762Z,1.9348
2019-04-01T02:09:00.934Z,1.9751
2019-04-01T02:09:13.150Z,2.0255
2019-04-01T02:09:25.330Z,2.0657
2019-04-01T02:09:37.521Z,2.0456
2019-04-01T02:09:49.693Z,2.0154
2019-04-01T02:10:01.885Z,1.9852
2019-04-01T02:10:14.069Z,1.9550
2019-04-01T02:10:26.242Z,1.9046
2019-04-01T02:10:38.446Z,1.8845
2019-04-01T02:10:50.650Z,1.8845
2019-04-01T02:11:01.835Z,1.8845
2019-04-01T02:11:13.015Z,1.8744
2019-04-01T02:11:25.226Z,1.8744
2019-04-01T02:11:37.524Z,1.8845
2019-04-01T02:11:48.724Z,2.1765
2019-04-01T02:12:00.910Z,2.3578
2019-04-01T02:12:13.099Z,2.4786
2019-04-01T02:12:25.285Z,2.5592
2019-04-01T02:12:37.467Z,2.6599
2019-04-01T02:12:49.670Z,2.7707
2019-04-01T02:13:01.879Z,2.8513
2019-04-01T02:13:14.088Z,2.9218
2019-04-01T02:13:26.279Z,3.0527
2019-04-01T02:13:38.472Z,3.1735
2019-04-01T02:13:50.649Z,3.1836
2019-04-01T02:14:02.831Z,3.2339
2019-04-01T02:14:15.013Z,3.2642
2019-04-01T02:14:27.196Z,3.2843
2019-04-01T02:14:39.379Z,3.2944
2019-04-01T02:14:51.551Z,3.2944
2019-04-01T02:15:03.722Z,3.3145
2019-04-01T02:15:15.909Z,3.3145
2019-04-01T02:15:28.095Z,3.3347
2019-04-01T02:15:40.286Z,3.3548
2019-04-01T02:15:52.466Z,3.3347
2019-04-01T02:16:04.643Z,3.3347
2019-04-01T02:16:16.829Z,3.3347
2019-04-01T02:16:28.024Z,3.3649
2019-04-01T02:16:39.209Z,3.3649
2019-04-01T02:16:51.413Z,3.3850
2019-04-01T02:17:03.609Z,3.3951
2019-04-01T02:17:15.785Z,3.4253
2019-04-01T02:17:27.991Z,3.4454
2019-04-01T02:17:40.195Z,3.4152
2019-04-01T02:17:52.382Z,3.3850
2019-04-01T02:18:04.575Z,3.3347
2019-04-01T02:18:16.770Z,3.4152
2019-04-01T02:18:28.960Z,3.5663
2019-04-01T02:18:41.267Z,3.6771
2019-04-01T02:18:53.460Z,3.7576
2019-04-01T02:19:05.661Z,3.7979
2019-04-01T02:19:17.847Z,3.8382
2019-04-01T02:19:30.031Z,3.8684
2019-04-01T02:19:42.214Z,3.8986
2019-04-01T02:19:54.394Z,3.8986
2019-04-01T02:20:06.570Z,3.8785
2019-04-01T02:20:18.776Z,3.8684
2019-04-01T02:20:30.951Z,3.8583
2019-04-01T02:20:43.162Z,3.8382
2019-04-01T02:20:55.342Z,3.8281
2019-04-01T02:21:07.649Z,3.8281
2019-04-01T02:21:19.848Z,3.8281
2019-04-01T02:21:32.031Z,3.8583
2019-04-01T02:21:44.211Z,3.8583
2019-04-01T02:21:56.410Z,3.7979
2019-04-01T02:22:08.614Z,3.7778
2019-04-01T02:22:20.794Z,3.7173
2019-04-01T02:22:32.961Z,3.6972
2019-04-01T02:22:45.166Z,3.6972
2019-04-01T02:22:57.349Z,3.7476
2019-04-01T02:23:09.529Z,3.7778
2019-04-01T02:23:21.705Z,3.7878
2019-04-01T02:23:32.889Z,3.7878
2019-04-01T02:23:45.141Z,3.7878
2019-04-01T02:23:57.346Z,3.7476
2019-04-01T02:24:09.524Z,3.6972
2019-04-01T02:24:21.709Z,3.6469
2019-04-01T02:24:33.898Z,3.5663
2019-04-01T02:24:46.075Z,3.5965
2019-04-01T02:24:58.277Z,3.6569
2019-04-01T02:25:10.452Z,3.6469
2019-04-01T02:25:22.652Z,3.6569
2019-04-01T02:25:34.824Z,3.7778
2019-04-01T02:25:47.011Z,3.8281
2019-04-01T02:25:59.221Z,3.8382
2019-04-01T02:26:11.405Z,3.9087
2019-04-01T02:26:23.591Z,3.9993
2019-04-01T02:26:35.775Z,3.9993
2019-04-01T02:26:47.945Z,4.1202
2019-04-01T02:27:00.130Z,4.3317
2019-04-01T02:27:12.310Z,4.5029
2019-04-01T02:27:24.482Z,4.5935
2019-04-01T02:27:36.661Z,4.6237
2019-04-01T02:27:48.849Z,4.6338
2019-04-01T02:28:01.034Z,4.5935
2019-04-01T02:28:13.216Z,4.6036
2019-04-01T02:28:25.407Z,4.5532
2019-04-01T02:28:37.600Z,4.5432
2019-04-01T02:28:49.803Z,4.4827
2019-04-01T02:29:01.075Z,4.4122
2019-04-01T02:29:12.371Z,4.3619
2019-04-01T02:29:23.579Z,4.2914
2019-04-01T02:29:35.963Z,4.2007
2019-04-01T02:29:47.360Z,4.1202
2019-04-01T02:29:59.719Z,4.0497
2019-04-01T02:30:12.020Z,3.9691
2019-04-01T02:30:24.220Z,3.8785
2019-04-01T02:30:36.423Z,3.8281
2019-04-01T02:30:48.633Z,3.7274
2019-04-01T02:31:00.886Z,3.5663
2019-04-01T02:31:13.094Z,3.4958
2019-04-01T02:31:25.294Z,3.4454